createdAt,value
2017-12-26T00:02:05.016Z,4.90
2017-12-26T00:04:32.646Z,4.80
2017-12-26T00:07:00.227Z,4.80
2017-12-26T00:09:28.714Z,4.80
2017-12-26T00:11:56.318Z,4.70
2017-12-26T00:14:23.935Z,4.70
2017-12-26T00:16:51.571Z,4.60
2017-12-26T00:19:19.174Z,4.60
2017-12-26T00:21:46.791Z,4.60
2017-12-26T00:24:15.166Z,4.50
2017-12-26T00:26:43.023Z,4.50
2017-12-26T00:29:11.376Z,4.40
2017-12-26T00:31:39.205Z,4.40
2017-12-26T00:34:07.032Z,4.40
2017-12-26T00:36:34.652Z,4.40
2017-12-26T00:39:02.212Z,4.30
2017-12-26T00:41:29.826Z,4.30
2017-12-26T00:43:58.198Z,4.30
2017-12-26T00:46:25.812Z,4.20
2017-12-26T00:48:53.373Z,4.20
2017-12-26T00:51:20.986Z,4.20
2017-12-26T00:53:48.620Z,4.20
2017-12-26T00:56:16.255Z,4.20
2017-12-26T00:58:43.899Z,4.10
2017-12-26T01:01:11.520Z,4.10
2017-12-26T01:03:39.143Z,4.10
2017-12-26T01:06:06.742Z,4.10
2017-12-26T01:08:35.120Z,4.00
2017-12-26T01:11:02.935Z,4.00
2017-12-26T01:13:30.504Z,4.00
2017-12-26T01:15:58.114Z,4.00
2017-12-26T01:18:26.502Z,3.90
2017-12-26T01:20:54.827Z,3.90
2017-12-26T01:23:22.486Z,3.90
2017-12-26T01:25:50.083Z,3.90
2017-12-26T01:28:17.645Z,3.80
2017-12-26T01:30:45.318Z,3.80
2017-12-26T01:33:13.667Z,3.80
2017-12-26T01:35:41.343Z,3.70
2017-12-26T01:38:08.972Z,3.70
2017-12-26T01:40:36.583Z,3.70
2017-12-26T01:43:04.194Z,3.70
2017-12-26T01:45:31.944Z,3.70
2017-12-26T01:47:59.519Z,3.70
2017-12-26T01:50:27.157Z,3.70
2017-12-26T01:52:54.744Z,3.70
2017-12-26T01:55:22.479Z,3.70
2017-12-26T01:57:50.114Z,3.70
2017-12-26T02:00:18.539Z,3.70
2017-12-26T02:02:46.130Z,3.70
2017-12-26T02:05:14.587Z,3.70
2017-12-26T02:07:42.157Z,3.70
2017-12-26T02:10:10.527Z,3.60
2017-12-26T02:12:38.084Z,3.60
2017-12-26T02:15:05.850Z,3.60
2017-12-26T02:17:34.081Z,3.50
2017-12-26T02:20:01.639Z,3.50
2017-12-26T02:22:30.018Z,3.50
2017-12-26T02:24:57.762Z,3.50
2017-12-26T02:27:25.343Z,3.50
2017-12-26T02:29:52.962Z,3.50
2017-12-26T02:32:20.572Z,3.50
2017-12-26T02:34:48.977Z,3.50
2017-12-26T02:37:16.560Z,3.50
2017-12-26T02:39:44.305Z,3.50
2017-12-26T02:42:11.889Z,3.50
2017-12-26T02:44:39.499Z,3.40
2017-12-26T02:47:07.075Z,3.40
2017-12-26T02:49:34.688Z,3.40
2017-12-26T02:52:02.265Z,3.40
2017-12-26T02:54:29.870Z,3.40
2017-12-26T02:56:57.591Z,3.40
2017-12-26T02:59:25.353Z,3.40
2017-12-26T03:01:52.957Z,3.40
2017-12-26T03:04:20.579Z,3.40
2017-12-26T03:06:48.780Z,3.40
2017-12-26T03:09:16.396Z,3.40
2017-12-26T03:11:44.737Z,3.40
2017-12-26T03:14:12.314Z,3.40
2017-12-26T03:16:41.203Z,3.40
2017-12-26T03:19:09.630Z,3.40
2017-12-26T03:21:37.534Z,3.40
2017-12-26T03:24:05.151Z,3.40
2017-12-26T03:26:32.880Z,3.40
2017-12-26T03:29:00.503Z,3.40
2017-12-26T03:31:28.742Z,3.40
2017-12-26T03:33:56.335Z,3.40
2017-12-26T03:36:23.929Z,3.40
2017-12-26T03:38:51.559Z,3.30
2017-12-26T03:41:19.138Z,3.40
2017-12-26T03:43:46.749Z,3.30
2017-12-26T03:46:15.095Z,3.30
2017-12-26T03:48:42.709Z,3.30
2017-12-26T03:51:11.651Z,3.30
2017-12-26T03:53:39.266Z,3.30
2017-12-26T03:56:06.847Z,3.30
2017-12-26T03:58:34.468Z,3.30
2017-12-26T04:01:02.078Z,3.30
2017-12-26T04:03:29.926Z,3.20
2017-12-26T04:05:57.500Z,3.20
2017-12-26T04:08:25.144Z,3.20
2017-12-26T04:10:52.722Z,3.30
2017-12-26T04:13:20.541Z,3.30
2017-12-26T04:15:48.115Z,3.30
2017-12-26T04:18:15.721Z,3.30
2017-12-26T04:20:43.353Z,3.30
2017-12-26T04:23:11.087Z,3.30
2017-12-26T04:25:39.499Z,3.30
2017-12-26T04:28:07.131Z,3.30
2017-12-26T04:30:35.538Z,3.20
2017-12-26T04:33:03.163Z,3.20
2017-12-26T04:35:30.791Z,3.20
2017-12-26T04:37:58.396Z,3.20
2017-12-26T04:40:26.772Z,3.20
2017-12-26T04:42:55.151Z,3.20
2017-12-26T04:45:23.658Z,3.20
2017-12-26T04:47:51.428Z,3.30
2017-12-26T04:50:19.573Z,3.20
2017-12-26T04:52:47.953Z,3.20
2017-12-26T04:55:16.287Z,3.20
2017-12-26T04:57:43.861Z,3.20
2017-12-26T05:00:11.657Z,3.20
2017-12-26T05:02:39.216Z,3.20
2017-12-26T05:05:06.923Z,3.20
2017-12-26T05:07:34.494Z,3.20
2017-12-26T05:10:02.068Z,3.20
2017-12-26T05:12:29.653Z,3.20
2017-12-26T05:14:57.239Z,3.10
2017-12-26T05:17:24.847Z,3.10
2017-12-26T05:19:52.482Z,3.10
2017-12-26T05:22:20.683Z,3.10
2017-12-26T05:24:48.262Z,3.10
2017-12-26T05:27:15.843Z,3.00
2017-12-26T05:29:43.436Z,3.00
2017-12-26T05:32:11.046Z,3.00
2017-12-26T05:34:38.636Z,3.00
2017-12-26T05:37:06.362Z,2.90
2017-12-26T05:39:33.956Z,3.00
2017-12-26T05:42:01.628Z,2.90
2017-12-26T05:44:29.198Z,2.90
2017-12-26T05:46:58.331Z,2.90
2017-12-26T05:49:26.172Z,2.90
2017-12-26T05:51:53.726Z,2.90
2017-12-26T05:54:21.651Z,2.90
2017-12-26T05:56:49.976Z,2.80
2017-12-26T05:59:17.586Z,2.90
2017-12-26T06:01:46.070Z,2.80
2017-12-26T06:04:13.674Z,2.80
2017-12-26T06:06:41.263Z,2.80
2017-12-26T06:09:08.846Z,2.80
2017-12-26T06:11:36.460Z,2.80
2017-12-26T06:14:04.038Z,2.80
2017-12-26T06:16:32.816Z,2.90
2017-12-26T06:19:00.579Z,2.90
2017-12-26T06:21:28.165Z,2.90
2017-12-26T06:23:55.802Z,2.90
2017-12-26T06:26:23.421Z,2.90
2017-12-26T06:28:51.858Z,2.90
2017-12-26T06:31:19.444Z,2.90
2017-12-26T06:33:47.087Z,2.90
2017-12-26T06:36:14.841Z,2.90
2017-12-26T06:38:43.333Z,2.90
2017-12-26T06:41:10.901Z,2.90
2017-12-26T06:43:38.557Z,2.90
2017-12-26T06:46:06.135Z,2.90
2017-12-26T06:48:33.750Z,2.90
2017-12-26T06:51:01.391Z,2.90
2017-12-26T06:53:28.990Z,3.00
2017-12-26T06:55:56.610Z,3.00
2017-12-26T06:58:24.519Z,3.00
2017-12-26T07:00:52.959Z,3.00
2017-12-26T07:03:20.885Z,3.00
2017-12-26T07:05:48.535Z,3.10
2017-12-26T07:08:16.106Z,3.10
2017-12-26T07:10:43.736Z,3.10
2017-12-26T07:13:11.315Z,3.20
2017-12-26T07:15:38.917Z,3.20
2017-12-26T07:18:07.196Z,3.20
2017-12-26T07:20:40.522Z,3.20
2017-12-26T07:23:08.104Z,3.30
2017-12-26T07:25:35.682Z,3.30
2017-12-26T07:28:03.277Z,3.30
2017-12-26T07:30:31.697Z,3.40
2017-12-26T07:33:00.066Z,3.40
2017-12-26T07:35:27.666Z,3.50
2017-12-26T07:37:55.409Z,3.50
2017-12-26T07:40:23.524Z,3.50
2017-12-26T07:42:51.866Z,3.60
2017-12-26T07:45:19.500Z,3.60
2017-12-26T07:47:47.492Z,3.70
2017-12-26T07:50:15.255Z,3.70
2017-12-26T07:52:42.845Z,3.70
2017-12-26T07:55:10.631Z,3.70
2017-12-26T07:57:39.003Z,3.80
2017-12-26T08:00:06.570Z,3.80
2017-12-26T08:02:34.918Z,3.80
2017-12-26T08:05:02.541Z,3.80
2017-12-26T08:07:30.102Z,3.80
2017-12-26T08:09:57.703Z,3.80
2017-12-26T08:12:25.348Z,3.90
2017-12-26T08:14:52.978Z,3.90
2017-12-26T08:17:20.586Z,4.00
2017-12-26T08:19:48.620Z,4.00
2017-12-26T08:22:16.372Z,4.00
2017-12-26T08:24:44.993Z,4.00
2017-12-26T08:27:12.634Z,4.10
2017-12-26T08:29:41.109Z,4.20
2017-12-26T08:32:08.771Z,4.20
2017-12-26T08:34:36.379Z,4.20
2017-12-26T08:37:04.097Z,4.10
2017-12-26T08:39:33.839Z,4.10
2017-12-26T08:42:01.467Z,4.10
2017-12-26T08:44:29.587Z,4.10
2017-12-26T08:46:57.231Z,4.10
2017-12-26T08:49:24.819Z,4.10
2017-12-26T08:51:53.204Z,4.10
2017-12-26T08:54:20.750Z,4.10
2017-12-26T08:56:48.845Z,4.20
2017-12-26T08:59:17.221Z,4.40
2017-12-26T09:01:44.840Z,4.30
2017-12-26T09:04:12.754Z,4.40
2017-12-26T09:06:40.345Z,4.30
2017-12-26T09:09:07.990Z,4.40
2017-12-26T09:11:35.771Z,4.40
2017-12-26T09:14:03.398Z,4.40
2017-12-26T09:16:31.768Z,4.50
2017-12-26T09:19:00.392Z,4.60
2017-12-26T09:21:28.056Z,4.50
2017-12-26T09:23:55.645Z,4.60
2017-12-26T09:26:23.715Z,4.70
2017-12-26T09:28:51.390Z,4.80
2017-12-26T09:31:19.588Z,4.80
2017-12-26T09:33:47.935Z,4.80
2017-12-26T09:36:15.625Z,4.90
2017-12-26T09:38:43.975Z,5.00
2017-12-26T09:41:11.716Z,5.00
2017-12-26T09:43:39.378Z,5.00
2017-12-26T09:46:07.015Z,5.10
2017-12-26T09:48:35.188Z,5.20
2017-12-26T09:51:03.101Z,5.30
2017-12-26T09:53:30.759Z,5.40
2017-12-26T09:55:58.379Z,5.50
2017-12-26T09:58:25.962Z,5.50
2017-12-26T10:00:53.574Z,5.60
2017-12-26T10:03:21.980Z,5.70
2017-12-26T10:05:49.720Z,5.70
2017-12-26T10:08:17.351Z,5.80
2017-12-26T10:10:44.993Z,5.80
2017-12-26T10:13:12.644Z,5.90
2017-12-26T10:15:40.294Z,6.00
2017-12-26T10:18:07.937Z,6.10
2017-12-26T10:20:35.536Z,6.10
2017-12-26T10:23:03.114Z,6.30
2017-12-26T10:25:30.705Z,6.30
2017-12-26T10:27:58.324Z,6.50
2017-12-26T10:30:25.960Z,6.50
2017-12-26T10:32:53.594Z,6.50
2017-12-26T10:35:21.208Z,6.60
2017-12-26T10:37:49.525Z,6.70
2017-12-26T10:40:17.233Z,6.80
2017-12-26T10:42:44.827Z,6.90
2017-12-26T10:45:12.428Z,6.90
2017-12-26T10:47:40.124Z,7.00
2017-12-26T10:50:07.699Z,7.00
2017-12-26T10:52:35.310Z,7.10
2017-12-26T10:55:02.918Z,7.20
2017-12-26T10:57:30.562Z,7.20
2017-12-26T10:59:58.182Z,7.30
2017-12-26T11:02:27.955Z,7.30
2017-12-26T11:04:55.523Z,7.40
2017-12-26T11:07:23.144Z,7.40
2017-12-26T11:09:50.717Z,7.50
2017-12-26T11:12:19.054Z,7.60
2017-12-26T11:14:47.403Z,7.70
2017-12-26T11:17:15.042Z,7.70
2017-12-26T11:19:42.639Z,7.80
2017-12-26T11:22:10.255Z,7.80
2017-12-26T11:24:37.880Z,7.90
2017-12-26T11:27:05.626Z,8.00
2017-12-26T11:29:33.357Z,8.00
2017-12-26T11:32:00.994Z,8.10
2017-12-26T11:34:28.583Z,8.10
2017-12-26T11:36:56.188Z,8.20
2017-12-26T11:39:23.902Z,8.20
2017-12-26T11:41:51.483Z,8.30
2017-12-26T11:44:19.120Z,8.40
2017-12-26T11:46:46.933Z,8.40
2017-12-26T11:49:16.110Z,8.60
2017-12-26T11:51:43.678Z,8.60
2017-12-26T11:54:11.354Z,8.60
2017-12-26T11:56:38.967Z,8.80
2017-12-26T11:59:08.096Z,9.00
2017-12-26T12:01:35.678Z,9.00
2017-12-26T12:04:04.172Z,9.10
2017-12-26T12:06:31.770Z,9.20
2017-12-26T12:08:59.657Z,9.20
2017-12-26T12:11:27.247Z,9.30
2017-12-26T12:13:55.717Z,9.30
2017-12-26T12:16:23.282Z,9.30
2017-12-26T12:18:50.892Z,9.50
2017-12-26T12:21:18.455Z,9.60
2017-12-26T12:23:46.228Z,9.70
2017-12-26T12:26:13.849Z,9.80
2017-12-26T12:28:41.421Z,9.90
2017-12-26T12:31:09.047Z,10.00
2017-12-26T12:33:36.796Z,10.00
2017-12-26T12:36:04.525Z,10.10
2017-12-26T12:38:32.084Z,10.10
2017-12-26T12:40:59.696Z,10.10
2017-12-26T12:43:27.258Z,10.10
2017-12-26T12:45:54.874Z,10.10
2017-12-26T12:48:22.480Z,10.10
2017-12-26T12:50:50.144Z,10.10
2017-12-26T12:53:18.577Z,10.00
2017-12-26T12:55:46.300Z,10.00
2017-12-26T12:58:13.934Z,10.00
2017-12-26T13:00:41.751Z,10.00
2017-12-26T13:03:09.425Z,10.00
2017-12-26T13:05:37.260Z,10.00
2017-12-26T13:08:04.879Z,10.00
2017-12-26T13:10:33.343Z,9.90
2017-12-26T13:13:00.937Z,9.90
2017-12-26T13:15:28.588Z,9.90
2017-12-26T13:17:57.055Z,10.10
2017-12-26T13:20:24.698Z,10.30
2017-12-26T13:22:52.481Z,10.30
2017-12-26T13:25:20.076Z,10.30
2017-12-26T13:27:47.696Z,10.40
2017-12-26T13:30:15.309Z,10.40
2017-12-26T13:32:43.722Z,10.50
2017-12-26T13:35:11.398Z,10.40
2017-12-26T13:37:38.968Z,10.50
2017-12-26T13:40:06.661Z,10.40
2017-12-26T13:42:34.222Z,10.40
2017-12-26T13:45:02.195Z,10.30
2017-12-26T13:47:31.293Z,10.30
2017-12-26T13:49:59.596Z,10.20
2017-12-26T13:52:27.204Z,10.20
2017-12-26T13:54:54.790Z,10.20
2017-12-26T13:57:23.158Z,10.10
2017-12-26T13:59:50.939Z,10.10
2017-12-26T14:02:19.306Z,10.00
2017-12-26T14:04:47.389Z,10.00
2017-12-26T14:07:16.212Z,9.90
2017-12-26T14:09:44.425Z,9.90
2017-12-26T14:12:12.009Z,9.90
2017-12-26T14:14:39.664Z,9.80
2017-12-26T14:17:07.436Z,9.70
2017-12-26T14:19:35.088Z,9.70
2017-12-26T14:22:02.695Z,9.60
2017-12-26T14:24:30.528Z,9.50
2017-12-26T14:26:58.141Z,9.50
2017-12-26T14:29:25.767Z,9.50
2017-12-26T14:31:53.435Z,9.40
2017-12-26T14:34:21.066Z,9.40
2017-12-26T14:36:49.020Z,9.40
2017-12-26T14:39:16.770Z,9.40
2017-12-26T14:41:44.339Z,9.40
2017-12-26T14:44:11.957Z,9.40
2017-12-26T14:46:39.592Z,9.30
2017-12-26T14:49:07.212Z,9.30
2017-12-26T14:51:34.791Z,9.30
2017-12-26T14:54:02.418Z,9.30
2017-12-26T14:56:30.041Z,9.30
2017-12-26T14:58:58.625Z,9.20
2017-12-26T15:01:26.214Z,9.10
2017-12-26T15:03:53.899Z,9.10
2017-12-26T15:06:21.539Z,9.10
2017-12-26T15:08:49.120Z,9.00
2017-12-26T15:11:16.785Z,9.00
2017-12-26T15:13:44.364Z,9.00
2017-12-26T15:16:12.157Z,8.90
2017-12-26T15:18:40.481Z,8.90
2017-12-26T15:21:08.552Z,8.90
2017-12-26T15:23:36.215Z,8.90
2017-12-26T15:26:05.461Z,8.90
2017-12-26T15:28:33.072Z,8.90
2017-12-26T15:31:00.672Z,8.80
2017-12-26T15:33:28.309Z,8.80
2017-12-26T15:35:55.910Z,8.80
2017-12-26T15:38:24.298Z,8.70
2017-12-26T15:40:52.103Z,8.70
2017-12-26T15:43:19.943Z,8.70
2017-12-26T15:45:49.016Z,8.70
2017-12-26T15:48:16.574Z,8.70
2017-12-26T15:50:44.931Z,8.60
2017-12-26T15:53:13.174Z,8.60
2017-12-26T15:55:40.780Z,8.60
2017-12-26T15:58:10.444Z,8.50
2017-12-26T16:00:38.093Z,8.50
2017-12-26T16:03:05.708Z,8.50
2017-12-26T16:05:34.150Z,8.50
2017-12-26T16:08:01.716Z,8.50
2017-12-26T16:10:29.346Z,8.50
2017-12-26T16:12:56.915Z,8.50
2017-12-26T16:15:24.496Z,8.40
2017-12-26T16:17:52.798Z,8.40
2017-12-26T16:20:20.824Z,8.40
2017-12-26T16:22:48.379Z,8.40
2017-12-26T16:25:15.987Z,8.40
2017-12-26T16:27:43.616Z,8.40
2017-12-26T16:30:11.206Z,8.40
2017-12-26T16:32:38.879Z,8.40
2017-12-26T16:35:06.619Z,8.40
2017-12-26T16:37:34.178Z,8.30
2017-12-26T16:40:02.694Z,8.20
2017-12-26T16:42:30.520Z,8.10
2017-12-26T16:44:58.145Z,7.90
2017-12-26T16:47:25.788Z,7.70
2017-12-26T16:49:54.149Z,7.40
2017-12-26T16:52:22.020Z,7.40
2017-12-26T16:54:51.079Z,7.30
2017-12-26T16:57:21.003Z,7.20
2017-12-26T16:59:48.887Z,7.10
2017-12-26T17:02:16.516Z,7.00
2017-12-26T17:04:44.066Z,6.90
2017-12-26T17:07:11.804Z,6.80
2017-12-26T17:09:40.238Z,6.70
2017-12-26T17:12:07.887Z,6.70
2017-12-26T17:14:35.759Z,6.70
2017-12-26T17:17:03.384Z,6.70
2017-12-26T17:19:31.219Z,6.60
2017-12-26T17:22:00.794Z,6.60
2017-12-26T17:24:28.377Z,6.50
2017-12-26T17:26:56.873Z,6.40
2017-12-26T17:29:25.283Z,6.30
2017-12-26T17:31:52.983Z,6.30
2017-12-26T17:34:21.674Z,6.20
2017-12-26T17:36:50.196Z,6.10
2017-12-26T17:39:18.633Z,6.10
2017-12-26T17:41:46.365Z,6.00
2017-12-26T17:44:14.224Z,6.00
2017-12-26T17:46:42.681Z,6.00
2017-12-26T17:49:10.279Z,6.00
2017-12-26T17:51:37.885Z,6.00
2017-12-26T17:54:05.465Z,5.90
2017-12-26T17:56:33.292Z,5.90
2017-12-26T17:59:06.949Z,5.80
2017-12-26T18:01:34.577Z,5.80
2017-12-26T18:04:02.157Z,5.70
2017-12-26T18:06:29.771Z,5.70
2017-12-26T18:08:57.389Z,5.70
2017-12-26T18:11:25.091Z,5.60
2017-12-26T18:13:52.674Z,5.60
2017-12-26T18:16:20.367Z,5.60
2017-12-26T18:18:48.794Z,5.50
2017-12-26T18:21:16.439Z,5.50
2017-12-26T18:23:44.147Z,5.50
2017-12-26T18:26:11.825Z,5.50
2017-12-26T18:31:12.833Z,5.50
2017-12-26T18:33:40.495Z,5.40
2017-12-26T18:36:08.082Z,5.40
2017-12-26T18:38:35.708Z,5.40
2017-12-26T18:41:03.430Z,5.30
2017-12-26T18:43:31.007Z,5.40
2017-12-26T18:45:58.814Z,5.30
2017-12-26T18:48:26.647Z,5.30
2017-12-26T18:50:55.023Z,5.30
2017-12-26T18:53:23.396Z,5.30
2017-12-26T18:55:51.826Z,5.30
2017-12-26T18:58:19.681Z,5.20
2017-12-26T19:00:47.960Z,5.30
2017-12-26T19:03:15.589Z,5.20
2017-12-26T19:05:43.968Z,5.20
2017-12-26T19:08:11.596Z,5.20
2017-12-26T19:10:39.230Z,5.20
2017-12-26T19:13:07.234Z,5.20
2017-12-26T19:15:34.832Z,5.10
2017-12-26T19:18:02.403Z,5.10
2017-12-26T19:20:30.182Z,5.00
2017-12-26T19:22:57.850Z,5.00
2017-12-26T19:25:25.403Z,5.00
2017-12-26T19:27:52.995Z,4.90
2017-12-26T19:30:20.593Z,4.90
2017-12-26T19:32:48.345Z,4.90
2017-12-26T19:35:15.910Z,4.90
2017-12-26T19:37:45.139Z,4.80
2017-12-26T19:40:12.905Z,4.80
2017-12-26T19:42:40.870Z,4.80
2017-12-26T19:45:08.709Z,4.80
2017-12-26T19:47:36.982Z,4.70
2017-12-26T19:50:04.551Z,4.70
2017-12-26T19:52:32.342Z,4.70
2017-12-26T19:55:00.723Z,4.60
2017-12-26T19:57:28.382Z,4.60
2017-12-26T19:59:56.558Z,4.60
2017-12-26T20:02:24.197Z,4.60
2017-12-26T20:04:51.780Z,4.50
2017-12-26T20:07:19.463Z,4.50
2017-12-26T20:09:47.066Z,4.50
2017-12-26T20:12:14.980Z,4.40
2017-12-26T20:14:42.641Z,4.40
2017-12-26T20:17:10.320Z,4.40
2017-12-26T20:19:37.897Z,4.40
2017-12-26T20:22:05.512Z,4.40
2017-12-26T20:24:33.114Z,4.40
2017-12-26T20:27:00.664Z,4.40
2017-12-26T20:29:28.295Z,4.40
2017-12-26T20:31:55.863Z,4.40
2017-12-26T20:34:23.531Z,4.40
2017-12-26T20:36:51.207Z,4.40
2017-12-26T20:39:19.035Z,4.40
2017-12-26T20:41:47.143Z,4.30
2017-12-26T20:44:14.721Z,4.40
2017-12-26T20:46:42.279Z,4.40
2017-12-26T20:49:09.997Z,4.40
2017-12-26T20:51:38.308Z,4.30
2017-12-26T20:54:05.953Z,4.30
2017-12-26T20:56:33.597Z,4.30
2017-12-26T20:59:01.231Z,4.30
2017-12-26T21:01:29.669Z,4.30
2017-12-26T21:03:57.307Z,4.20
2017-12-26T21:06:25.095Z,4.30
2017-12-26T21:08:52.923Z,4.30
2017-12-26T21:11:20.565Z,4.20
2017-12-26T21:13:48.185Z,4.20
2017-12-26T21:16:15.750Z,4.20
2017-12-26T21:18:43.338Z,4.20
2017-12-26T21:21:10.904Z,4.20
2017-12-26T21:23:38.522Z,4.10
2017-12-26T21:26:06.117Z,4.10
2017-12-26T21:28:33.768Z,4.10
2017-12-26T21:31:01.324Z,4.10
2017-12-26T21:33:29.001Z,4.10
2017-12-26T21:35:56.565Z,4.00
2017-12-26T21:38:24.184Z,4.00
2017-12-26T21:40:51.746Z,4.00
2017-12-26T21:43:19.363Z,4.00
2017-12-26T21:45:47.401Z,4.00
2017-12-26T21:48:14.966Z,3.90
2017-12-26T21:50:42.573Z,3.90
2017-12-26T21:53:10.798Z,3.90
2017-12-26T21:55:39.079Z,3.90
2017-12-26T21:58:06.661Z,3.90
2017-12-26T22:00:35.022Z,3.90
2017-12-26T22:03:02.618Z,4.00
2017-12-26T22:05:30.193Z,4.00
2017-12-26T22:07:57.794Z,4.00
2017-12-26T22:10:25.355Z,4.00
2017-12-26T22:12:52.918Z,4.00
2017-12-26T22:15:20.533Z,4.00
2017-12-26T22:17:48.559Z,4.00
2017-12-26T22:20:16.340Z,4.00
2017-12-26T22:22:43.955Z,4.00
2017-12-26T22:25:11.643Z,4.00
2017-12-26T22:27:39.809Z,4.00
2017-12-26T22:30:08.365Z,4.00
2017-12-26T22:32:36.019Z,4.00
2017-12-26T22:35:03.628Z,4.00
2017-12-26T22:37:36.301Z,4.00
2017-12-26T22:40:03.945Z,3.90
2017-12-26T22:42:31.567Z,3.90
2017-12-26T22:44:59.281Z,3.90
2017-12-26T22:47:26.915Z,3.80
2017-12-26T22:49:54.540Z,3.80
2017-12-26T22:52:22.111Z,3.80
2017-12-26T22:54:49.725Z,3.80
2017-12-26T22:57:18.822Z,3.70
2017-12-26T22:59:46.492Z,3.70
2017-12-26T23:02:14.120Z,3.70
2017-12-26T23:04:41.730Z,3.70
2017-12-26T23:07:09.316Z,3.70
2017-12-26T23:09:36.898Z,3.60
2017-12-26T23:12:04.468Z,3.60
2017-12-26T23:14:38.459Z,3.60
2017-12-26T23:17:11.728Z,3.60
2017-12-26T23:19:45.844Z,3.60
2017-12-26T23:22:13.435Z,3.60
2017-12-26T23:24:46.800Z,3.60
2017-12-26T23:30:21.921Z,3.50
2017-12-26T23:32:55.218Z,3.50
2017-12-26T23:35:28.540Z,3.50
2017-12-26T23:38:01.898Z,3.40
2017-12-26T23:40:35.076Z,3.40
2017-12-26T23:43:08.187Z,3.30
2017-12-26T23:45:42.893Z,3.30
2017-12-26T23:48:16.902Z,3.30
2017-12-26T23:50:50.049Z,3.30
2017-12-26T23:53:23.241Z,3.20
2017-12-26T23:55:56.441Z,3.20
2017-12-26T23:58:29.554Z,3.20
